sensor_id;sensor_type;location;lat;lon;timestamp;temperature;humidity
9095;DHT22;4583;49.796;9.902;2022-09-13T00:04:45;16.70;97.10
9095;DHT22;4583;49.796;9.902;2022-09-13T00:14:46;16.60;97.00
9095;DHT22;4583;49.796;9.902;2022-09-13T00:24:48;16.50;97.10
9095;DHT22;4583;49.796;9.902;2022-09-13T00:34:50;16.40;97.20
9095;DHT22;4583;49.796;9.902;2022-09-13T00:45:00;16.20;97.20
9095;DHT22;4583;49.796;9.902;2022-09-13T00:55:12;16.10;97.20
9095;DHT22;4583;49.796;9.902;2022-09-13T01:05:16;16.00;97.40
9095;DHT22;4583;49.796;9.902;2022-09-13T01:15:19;15.80;97.40
9095;DHT22;4583;49.796;9.902;2022-09-13T01:25:25;15.80;97.50
9095;DHT22;4583;49.796;9.902;2022-09-13T01:46:31;15.70;97.70
9095;DHT22;4583;49.796;9.902;2022-09-13T01:56:59;15.70;97.70
9095;DHT22;4583;49.796;9.902;2022-09-13T02:07:39;15.70;97.70
9095;DHT22;4583;49.796;9.902;2022-09-13T02:17:38;15.60;97.60
9095;DHT22;4583;49.796;9.902;2022-09-13T02:27:45;15.60;97.80
9095;DHT22;4583;49.796;9.902;2022-09-13T02:37:54;15.60;97.90
9095;DHT22;4583;49.796;9.902;2022-09-13T02:48:18;15.50;97.80
9095;DHT22;4583;49.796;9.902;2022-09-13T03:08:42;15.30;97.80
9095;DHT22;4583;49.796;9.902;2022-09-13T03:29:30;15.30;97.80
9095;DHT22;4583;49.796;9.902;2022-09-13T03:39:52;15.10;97.70
9095;DHT22;4583;49.796;9.902;2022-09-13T03:49:55;15.00;97.80
9095;DHT22;4583;49.796;9.902;2022-09-13T03:59:57;15.00;98.00
9095;DHT22;4583;49.796;9.902;2022-09-13T04:09:59;14.80;98.50
9095;DHT22;4583;49.796;9.902;2022-09-13T04:20:01;14.90;98.80
9095;DHT22;4583;49.796;9.902;2022-09-13T04:30:04;15.00;98.90
9095;DHT22;4583;49.796;9.902;2022-09-13T04:40:06;14.90;99.00
9095;DHT22;4583;49.796;9.902;2022-09-13T04:50:08;14.90;99.20
9095;DHT22;4583;49.796;9.902;2022-09-13T05:00:10;15.00;99.20
9095;DHT22;4583;49.796;9.902;2022-09-13T05:10:13;15.00;99.20
9095;DHT22;4583;49.796;9.902;2022-09-13T05:20:19;15.00;99.20
9095;DHT22;4583;49.796;9.902;2022-09-13T05:30:21;15.10;99.30
9095;DHT22;4583;49.796;9.902;2022-09-13T05:40:23;15.10;99.30
9095;DHT22;4583;49.796;9.902;2022-09-13T05:50:25;15.20;99.40
9095;DHT22;4583;49.796;9.902;2022-09-13T06:00:52;15.20;99.20
9095;DHT22;4583;49.796;9.902;2022-09-13T06:11:03;15.30;99.20
9095;DHT22;4583;49.796;9.902;2022-09-13T06:21:12;15.50;99.30
9095;DHT22;4583;49.796;9.902;2022-09-13T06:31:20;15.50;99.20
9095;DHT22;4583;49.796;9.902;2022-09-13T06:41:23;15.70;99.20
9095;DHT22;4583;49.796;9.902;2022-09-13T06:51:25;15.80;99.10
9095;DHT22;4583;49.796;9.902;2022-09-13T07:01:45;15.90;99.00
9095;DHT22;4583;49.796;9.902;2022-09-13T07:11:49;16.10;98.90
9095;DHT22;4583;49.796;9.902;2022-09-13T07:21:51;16.30;98.70
9095;DHT22;4583;49.796;9.902;2022-09-13T07:31:54;16.40;98.60
9095;DHT22;4583;49.796;9.902;2022-09-13T07:41:57;16.50;98.30
9095;DHT22;4583;49.796;9.902;2022-09-13T07:51:58;16.60;98.20
9095;DHT22;4583;49.796;9.902;2022-09-13T08:02:00;16.70;98.10
9095;DHT22;4583;49.796;9.902;2022-09-13T08:12:02;16.80;98.20
9095;DHT22;4583;49.796;9.902;2022-09-13T08:22:03;17.10;98.00
9095;DHT22;4583;49.796;9.902;2022-09-13T08:32:05;17.20;97.90
9095;DHT22;4583;49.796;9.902;2022-09-13T08:42:23;17.40;97.90
9095;DHT22;4583;49.796;9.902;2022-09-13T09:03:07;17.80;97.60
9095;DHT22;4583;49.796;9.902;2022-09-13T09:13:21;17.90;97.50
9095;DHT22;4583;49.796;9.902;2022-09-13T09:24:03;18.10;97.40
9095;DHT22;4583;49.796;9.902;2022-09-13T09:34:31;18.20;97.20
9095;DHT22;4583;49.796;9.902;2022-09-13T09:44:46;18.40;97.10
9095;DHT22;4583;49.796;9.902;2022-09-13T09:54:50;18.80;96.90
9095;DHT22;4583;49.796;9.902;2022-09-13T10:04:56;19.10;96.60
9095;DHT22;4583;49.796;9.902;2022-09-13T10:15:16;19.40;96.30
9095;DHT22;4583;49.796;9.902;2022-09-13T10:25:24;19.70;95.80
9095;DHT22;4583;49.796;9.902;2022-09-13T10:35:28;19.80;95.60
9095;DHT22;4583;49.796;9.902;2022-09-13T10:45:30;19.80;95.50
9095;DHT22;4583;49.796;9.902;2022-09-13T10:55:35;19.70;95.50
9095;DHT22;4583;49.796;9.902;2022-09-13T11:15:57;19.70;96.00
9095;DHT22;4583;49.796;9.902;2022-09-13T11:26:29;19.60;96.30
9095;DHT22;4583;49.796;9.902;2022-09-13T11:58:18;19.80;98.20
9095;DHT22;4583;49.796;9.902;2022-09-13T12:08:27;19.90;98.40
9095;DHT22;4583;49.796;9.902;2022-09-13T12:18:37;20.00;98.60
9095;DHT22;4583;49.796;9.902;2022-09-13T12:28:45;20.20;98.80
9095;DHT22;4583;49.796;9.902;2022-09-13T12:39:20;20.50;98.90
9095;DHT22;4583;49.796;9.902;2022-09-13T13:00:09;20.90;98.40
9095;DHT22;4583;49.796;9.902;2022-09-13T13:10:25;20.90;98.10
9095;DHT22;4583;49.796;9.902;2022-09-13T13:30:56;21.10;97.80
9095;DHT22;4583;49.796;9.902;2022-09-13T13:51:39;21.40;97.30
9095;DHT22;4583;49.796;9.902;2022-09-13T14:01:45;21.40;97.30
9095;DHT22;4583;49.796;9.902;2022-09-13T14:22:26;21.50;97.10
9095;DHT22;4583;49.796;9.902;2022-09-13T14:32:30;21.50;97.10
9095;DHT22;4583;49.796;9.902;2022-09-13T14:42:51;21.50;97.00
9095;DHT22;4583;49.796;9.902;2022-09-13T14:52:56;21.50;96.90
9095;DHT22;4583;49.796;9.902;2022-09-13T15:03:01;21.50;96.90
9095;DHT22;4583;49.796;9.902;2022-09-13T15:23:14;21.80;96.30
9095;DHT22;4583;49.796;9.902;2022-09-13T15:33:28;21.80;95.70
9095;DHT22;4583;49.796;9.902;2022-09-13T15:43:30;21.80;95.60
9095;DHT22;4583;49.796;9.902;2022-09-13T15:53:34;21.80;95.50
9095;DHT22;4583;49.796;9.902;2022-09-13T16:03:36;21.70;94.80
9095;DHT22;4583;49.796;9.902;2022-09-13T16:13:37;21.60;94.40
9095;DHT22;4583;49.796;9.902;2022-09-13T16:23:39;21.40;94.40
9095;DHT22;4583;49.796;9.902;2022-09-13T16:33:41;21.30;95.20
9095;DHT22;4583;49.796;9.902;2022-09-13T16:43:43;21.30;96.30
9095;DHT22;4583;49.796;9.902;2022-09-13T16:53:44;21.10;97.20
9095;DHT22;4583;49.796;9.902;2022-09-13T17:03:47;21.10;98.10
9095;DHT22;4583;49.796;9.902;2022-09-13T17:13:54;21.00;98.70
9095;DHT22;4583;49.796;9.902;2022-09-13T17:23:57;20.90;99.20
9095;DHT22;4583;49.796;9.902;2022-09-13T17:33:58;20.90;99.50
9095;DHT22;4583;49.796;9.902;2022-09-13T17:44:00;20.80;99.60
9095;DHT22;4583;49.796;9.902;2022-09-13T17:54:06;20.70;99.60
9095;DHT22;4583;49.796;9.902;2022-09-13T18:04:11;20.60;99.80
9095;DHT22;4583;49.796;9.902;2022-09-13T18:14:15;20.60;99.90
9095;DHT22;4583;49.796;9.902;2022-09-13T18:24:17;20.50;99.90
9095;DHT22;4583;49.796;9.902;2022-09-13T18:34:18;20.40;99.90
9095;DHT22;4583;49.796;9.902;2022-09-13T18:44:20;20.30;99.90
9095;DHT22;4583;49.796;9.902;2022-09-13T18:54:22;20.30;99.90
9095;DHT22;4583;49.796;9.902;2022-09-13T19:04:24;20.20;99.90
9095;DHT22;4583;49.796;9.902;2022-09-13T19:14:26;20.20;99.90
9095;DHT22;4583;49.796;9.902;2022-09-13T19:24:29;20.10;99.90
9095;DHT22;4583;49.796;9.902;2022-09-13T19:34:31;20.10;99.90
9095;DHT22;4583;49.796;9.902;2022-09-13T19:44:33;20.00;99.90
9095;DHT22;4583;49.796;9.902;2022-09-13T19:54:34;20.00;99.90
9095;DHT22;4583;49.796;9.902;2022-09-13T20:04:36;20.00;99.90
9095;DHT22;4583;49.796;9.902;2022-09-13T20:14:38;20.00;99.90
9095;DHT22;4583;49.796;9.902;2022-09-13T20:24:40;19.90;99.90
9095;DHT22;4583;49.796;9.902;2022-09-13T20:34:41;19.90;99.90
9095;DHT22;4583;49.796;9.902;2022-09-13T20:44:44;19.90;99.90
9095;DHT22;4583;49.796;9.902;2022-09-13T20:54:46;19.90;99.90
9095;DHT22;4583;49.796;9.902;2022-09-13T21:04:48;19.80;99.90
9095;DHT22;4583;49.796;9.902;2022-09-13T21:14:50;20.00;99.90
9095;DHT22;4583;49.796;9.902;2022-09-13T21:24:51;19.70;99.90
9095;DHT22;4583;49.796;9.902;2022-09-13T21:34:53;19.70;99.90
9095;DHT22;4583;49.796;9.902;2022-09-13T21:44:54;19.60;99.90
9095;DHT22;4583;49.796;9.902;2022-09-13T21:54:58;19.60;99.90
9095;DHT22;4583;49.796;9.902;2022-09-13T22:05:00;19.60;99.90
9095;DHT22;4583;49.796;9.902;2022-09-13T22:15:02;19.50;99.90
9095;DHT22;4583;49.796;9.902;2022-09-13T22:25:05;19.40;99.90
9095;DHT22;4583;49.796;9.902;2022-09-13T22:35:07;19.40;99.90
9095;DHT22;4583;49.796;9.902;2022-09-13T22:45:10;19.40;99.90
9095;DHT22;4583;49.796;9.902;2022-09-13T22:55:11;19.30;99.90
9095;DHT22;4583;49.796;9.902;2022-09-13T23:05:13;19.30;99.90
9095;DHT22;4583;49.796;9.902;2022-09-13T23:15:15;19.30;99.90
9095;DHT22;4583;49.796;9.902;2022-09-13T23:25:17;19.30;99.90
9095;DHT22;4583;49.796;9.902;2022-09-13T23:35:19;19.30;99.90
9095;DHT22;4583;49.796;9.902;2022-09-13T23:45:21;19.30;99.90
9095;DHT22;4583;49.796;9.902;2022-09-13T23:55:22;19.30;99.90
